createdAt,value
2022-11-10T00:01:38.114Z,100.00
2022-11-10T00:04:42.421Z,100.00
2022-11-10T00:07:45.164Z,100.00
2022-11-10T00:11:01.984Z,100.00
2022-11-10T00:14:22.733Z,100.00
2022-11-10T00:17:25.982Z,100.00
2022-11-10T00:20:30.042Z,100.00
2022-11-10T00:23:32.717Z,100.00
2022-11-10T00:26:35.786Z,100.00
2022-11-10T00:29:38.491Z,100.00
2022-11-10T00:32:41.456Z,100.00
2022-11-10T00:35:45.505Z,100.00
2022-11-10T00:38:51.577Z,100.00
2022-11-10T00:41:54.578Z,100.00
2022-11-10T00:44:57.276Z,100.00
2022-11-10T00:48:00.333Z,100.00
2022-11-10T00:51:04.861Z,100.00
2022-11-10T00:54:07.961Z,100.00
2022-11-10T00:57:10.681Z,100.00
2022-11-10T01:00:13.917Z,100.00
2022-11-10T01:03:18.985Z,100.00
2022-11-10T01:06:23.896Z,100.00
2022-11-10T01:09:27.005Z,100.00
2022-11-10T01:12:30.903Z,100.00
2022-11-10T01:15:33.708Z,100.00
2022-11-10T01:18:37.334Z,100.00
2022-11-10T01:21:41.675Z,100.00
2022-11-10T01:24:44.782Z,100.00
2022-11-10T01:27:47.557Z,100.00
2022-11-10T01:30:50.599Z,100.00
2022-11-10T01:33:53.293Z,100.00
2022-11-10T01:36:57.664Z,100.00
2022-11-10T01:40:00.989Z,100.00
2022-11-10T01:43:03.788Z,100.00
2022-11-10T01:46:08.075Z,100.00
2022-11-10T01:49:12.337Z,100.00
2022-11-10T01:52:16.457Z,100.00
2022-11-10T01:55:19.993Z,100.00
2022-11-10T01:58:26.518Z,100.00
2022-11-10T02:01:29.645Z,100.00
2022-11-10T02:04:32.494Z,100.00
2022-11-10T02:07:37.013Z,100.00
2022-11-10T02:10:39.692Z,100.00
2022-11-10T02:13:43.007Z,100.00
2022-11-10T02:16:45.709Z,100.00
2022-11-10T02:19:48.693Z,100.00
2022-11-10T02:22:53.068Z,100.00
2022-11-10T02:25:56.055Z,100.00
2022-11-10T02:28:58.731Z,100.00
2022-11-10T02:32:02.096Z,100.00
2022-11-10T02:35:05.320Z,100.00
2022-11-10T02:38:09.958Z,100.00
2022-11-10T02:41:12.660Z,100.00
2022-11-10T02:44:15.361Z,100.00
2022-11-10T02:47:18.545Z,100.00
2022-11-10T02:50:21.259Z,100.00
2022-11-10T02:53:25.437Z,100.00
2022-11-10T02:56:28.235Z,100.00
2022-11-10T02:59:31.363Z,100.00
2022-11-10T03:02:34.146Z,100.00
2022-11-10T03:05:37.524Z,100.00
2022-11-10T03:08:42.080Z,100.00
2022-11-10T03:11:44.731Z,100.00
2022-11-10T03:14:47.920Z,100.00
2022-11-10T03:17:50.825Z,100.00
2022-11-10T03:20:53.643Z,100.00
2022-11-10T03:23:57.718Z,100.00
2022-11-10T03:27:00.842Z,100.00
2022-11-10T03:30:03.574Z,100.00
2022-11-10T03:33:07.209Z,100.00
2022-11-10T03:36:10.115Z,100.00
2022-11-10T03:39:14.622Z,100.00
2022-11-10T03:42:17.319Z,100.00
2022-11-10T03:45:20.057Z,100.00
2022-11-10T03:48:22.772Z,100.00
2022-11-10T03:51:26.040Z,100.00
2022-11-10T03:54:30.567Z,100.00
2022-11-10T03:57:33.255Z,100.00
2022-11-10T04:00:36.439Z,100.00
2022-11-10T04:03:39.239Z,100.00
2022-11-10T04:07:00.003Z,100.00
2022-11-10T04:10:05.236Z,100.00
2022-11-10T04:13:26.076Z,100.00
2022-11-10T04:16:28.765Z,100.00
2022-11-10T04:19:32.644Z,100.00
2022-11-10T04:22:52.780Z,100.00
2022-11-10T04:26:20.138Z,100.00
2022-11-10T04:29:23.407Z,100.00
2022-11-10T04:32:26.563Z,100.00
2022-11-10T04:35:29.319Z,100.00
2022-11-10T04:38:32.661Z,100.00
2022-11-10T04:41:37.671Z,100.00
2022-11-10T04:44:40.403Z,100.00
2022-11-10T04:47:43.629Z,100.00
2022-11-10T04:50:46.905Z,100.00
2022-11-10T04:53:49.735Z,100.00
2022-11-10T04:56:54.273Z,100.00
2022-11-10T04:59:57.411Z,100.00
2022-11-10T05:03:00.960Z,100.00
2022-11-10T05:06:04.282Z,100.00
2022-11-10T05:09:06.966Z,100.00
2022-11-10T05:12:11.489Z,100.00
2022-11-10T05:15:14.343Z,100.00
2022-11-10T05:18:17.514Z,100.00
2022-11-10T05:21:20.605Z,100.00
2022-11-10T05:24:23.963Z,100.00
2022-11-10T05:27:28.083Z,100.00
2022-11-10T05:30:30.812Z,100.00
2022-11-10T05:33:34.150Z,100.00
2022-11-10T05:36:36.840Z,100.00
2022-11-10T05:39:39.909Z,100.00
2022-11-10T05:42:48.333Z,100.00
2022-11-10T05:45:51.568Z,100.00
2022-11-10T05:48:54.267Z,100.00
2022-11-10T05:51:57.439Z,100.00
2022-11-10T05:55:00.146Z,100.00
2022-11-10T05:58:04.930Z,100.00
2022-11-10T06:01:07.665Z,100.00
2022-11-10T06:04:10.909Z,100.00
2022-11-10T06:07:14.135Z,100.00
2022-11-10T06:10:17.401Z,100.00
2022-11-10T06:13:22.185Z,100.00
2022-11-10T06:16:25.146Z,100.00
2022-11-10T06:19:28.285Z,100.00
2022-11-10T06:22:31.140Z,100.00
2022-11-10T06:25:36.052Z,100.00
2022-11-10T06:28:40.111Z,100.00
2022-11-10T06:31:43.422Z,100.00
2022-11-10T06:34:46.158Z,100.00
2022-11-10T06:37:58.097Z,100.00
2022-11-10T06:41:00.849Z,100.00
2022-11-10T06:44:05.335Z,100.00
2022-11-10T06:47:08.076Z,100.00
2022-11-10T06:50:11.099Z,100.00
2022-11-10T06:53:14.200Z,100.00
2022-11-10T06:56:17.520Z,100.00
2022-11-10T06:59:21.576Z,100.00
2022-11-10T07:02:24.338Z,100.00
2022-11-10T07:05:27.032Z,100.00
2022-11-10T07:08:30.525Z,100.00
2022-11-10T07:11:33.205Z,100.00
2022-11-10T07:14:37.604Z,100.00
2022-11-10T07:17:41.761Z,100.00
2022-11-10T07:20:46.504Z,100.00
2022-11-10T07:23:49.190Z,100.00
2022-11-10T07:26:52.418Z,100.00
2022-11-10T07:29:56.466Z,100.00
2022-11-10T07:33:01.824Z,100.00
2022-11-10T07:36:05.638Z,100.00
2022-11-10T07:39:08.393Z,100.00
2022-11-10T07:42:11.114Z,100.00
2022-11-10T07:45:15.276Z,100.00
2022-11-10T07:48:18.379Z,100.00
2022-11-10T07:51:21.139Z,100.00
2022-11-10T07:54:24.346Z,100.00
2022-11-10T07:57:27.063Z,100.00
2022-11-10T08:00:32.269Z,100.00
2022-11-10T08:03:35.009Z,100.00
2022-11-10T08:06:38.429Z,100.00
2022-11-10T08:09:41.237Z,100.00
2022-11-10T08:12:43.912Z,100.00
2022-11-10T08:15:48.013Z,100.00
2022-11-10T08:18:51.246Z,100.00
2022-11-10T08:21:53.944Z,100.00
2022-11-10T08:24:57.044Z,100.00
2022-11-10T08:28:01.828Z,100.00
2022-11-10T08:31:06.582Z,100.00
2022-11-10T08:34:09.581Z,100.00
2022-11-10T08:37:12.320Z,100.00
2022-11-10T08:40:15.876Z,100.00
2022-11-10T08:43:19.407Z,100.00
2022-11-10T08:46:24.064Z,100.00
2022-11-10T08:49:26.727Z,100.00
2022-11-10T08:52:29.987Z,100.00
2022-11-10T08:55:32.769Z,100.00
2022-11-10T08:58:47.247Z,100.00
2022-11-10T09:01:54.397Z,100.00
2022-11-10T09:04:57.622Z,100.00
2022-11-10T09:08:00.377Z,100.00
2022-11-10T09:11:04.568Z,100.00
2022-11-10T09:14:07.687Z,100.00
2022-11-10T09:17:11.817Z,100.00
2022-11-10T09:20:14.632Z,100.00
2022-11-10T09:23:20.217Z,100.00
2022-11-10T09:26:23.648Z,100.00
2022-11-10T09:29:26.366Z,100.00
2022-11-10T09:32:32.526Z,100.00
2022-11-10T09:35:36.009Z,100.00
2022-11-10T09:38:39.477Z,100.00
2022-11-10T09:41:43.997Z,100.00
2022-11-10T09:44:53.271Z,100.00
2022-11-10T09:48:03.200Z,100.00
2022-11-10T09:51:09.433Z,100.00
2022-11-10T09:54:28.465Z,100.00
2022-11-10T09:57:31.584Z,100.00
2022-11-10T10:00:36.847Z,100.00
2022-11-10T10:03:47.689Z,100.00
2022-11-10T10:07:10.660Z,100.00
2022-11-10T10:10:21.147Z,100.00
2022-11-10T10:13:33.440Z,100.00
2022-11-10T10:16:45.456Z,100.00
2022-11-10T10:19:55.940Z,100.00
2022-11-10T10:23:08.284Z,100.00
2022-11-10T10:26:17.024Z,100.00
2022-11-10T10:29:24.162Z,100.00
2022-11-10T10:32:27.660Z,100.00
2022-11-10T10:35:32.184Z,100.00
2022-11-10T10:38:39.221Z,100.00
2022-11-10T10:41:44.925Z,100.00
2022-11-10T10:45:17.661Z,100.00
2022-11-10T10:48:28.703Z,100.00
2022-11-10T10:51:32.966Z,100.00
2022-11-10T10:54:38.270Z,100.00
2022-11-10T10:57:51.636Z,100.00
2022-11-10T11:00:57.635Z,99.41
2022-11-10T11:04:02.075Z,99.26
2022-11-10T11:07:20.038Z,98.27
2022-11-10T11:10:24.742Z,97.91
2022-11-10T11:13:30.273Z,97.42
2022-11-10T11:16:47.229Z,97.55
2022-11-10T11:19:58.506Z,96.23
2022-11-10T11:23:13.077Z,96.00
2022-11-10T11:26:20.838Z,95.74
2022-11-10T11:29:47.008Z,94.60
2022-11-10T11:33:13.471Z,93.95
2022-11-10T11:36:26.022Z,92.77
2022-11-10T11:39:39.751Z,92.46
2022-11-10T11:42:55.396Z,91.47
2022-11-10T11:46:07.243Z,91.61
2022-11-10T11:49:42.166Z,91.45
2022-11-10T11:52:56.427Z,91.14
2022-11-10T11:56:12.378Z,89.24
2022-11-10T11:59:33.476Z,88.52
2022-11-10T12:02:53.507Z,83.59
2022-11-10T12:06:15.835Z,81.62
2022-11-10T12:09:27.284Z,82.96
2022-11-10T12:13:05.934Z,83.65
2022-11-10T12:16:18.986Z,77.87
2022-11-10T12:19:34.791Z,80.32
2022-11-10T12:22:44.978Z,81.24
2022-11-10T12:25:57.040Z,81.25
2022-11-10T12:29:06.086Z,80.45
2022-11-10T12:32:17.263Z,80.76
2022-11-10T12:35:23.894Z,80.38
2022-11-10T12:38:36.721Z,80.13
2022-11-10T12:41:46.843Z,80.35
2022-11-10T12:45:00.499Z,79.91
2022-11-10T12:48:06.454Z,79.04
2022-11-10T12:51:16.574Z,78.69
2022-11-10T12:54:22.405Z,77.73
2022-11-10T12:57:27.557Z,77.58
2022-11-10T13:00:33.515Z,78.42
2022-11-10T13:03:39.423Z,76.32
2022-11-10T13:06:49.503Z,75.19
2022-11-10T13:09:52.415Z,75.42
2022-11-10T13:13:00.514Z,75.80
2022-11-10T13:16:03.803Z,73.35
2022-11-10T13:19:09.548Z,75.06
2022-11-10T13:22:28.982Z,74.50
2022-11-10T13:26:03.154Z,73.04
2022-11-10T13:29:21.760Z,71.71
2022-11-10T13:32:28.383Z,72.97
2022-11-10T13:35:55.570Z,73.56
2022-11-10T13:38:58.760Z,74.65
2022-11-10T13:42:04.566Z,74.27
2022-11-10T13:45:30.269Z,75.20
2022-11-10T13:48:50.836Z,75.46
2022-11-10T13:52:06.317Z,73.39
2022-11-10T13:55:36.199Z,71.76
2022-11-10T13:58:44.952Z,71.72
2022-11-10T14:01:48.300Z,72.86
2022-11-10T14:04:51.225Z,74.22
2022-11-10T14:07:58.603Z,73.68
2022-11-10T14:11:05.714Z,71.50
2022-11-10T14:14:14.782Z,73.66
2022-11-10T14:17:22.510Z,74.30
2022-11-10T14:20:30.929Z,74.73
2022-11-10T14:23:46.673Z,75.17
2022-11-10T14:26:52.879Z,76.18
2022-11-10T14:30:08.813Z,77.15
2022-11-10T14:33:13.062Z,77.65
2022-11-10T14:36:15.861Z,77.55
2022-11-10T14:39:25.953Z,78.23
2022-11-10T14:42:31.458Z,78.36
2022-11-10T14:45:34.508Z,78.92
2022-11-10T14:48:39.668Z,79.44
2022-11-10T14:51:42.408Z,80.07
2022-11-10T14:54:47.671Z,80.06
2022-11-10T14:57:52.564Z,80.50
2022-11-10T15:00:55.880Z,81.00
2022-11-10T15:03:58.651Z,80.91
2022-11-10T15:07:01.939Z,81.35
2022-11-10T15:10:16.963Z,81.78
2022-11-10T15:13:33.591Z,81.91
2022-11-10T15:16:36.936Z,82.81
2022-11-10T15:24:12.213Z,83.38
2022-11-10T15:27:24.920Z,83.86
2022-11-10T15:30:27.731Z,84.56
2022-11-10T15:33:34.371Z,85.26
2022-11-10T15:36:39.740Z,85.70
2022-11-10T15:39:42.918Z,86.23
2022-11-10T15:43:10.743Z,86.50
2022-11-10T15:46:20.499Z,87.40
2022-11-10T15:49:26.352Z,87.90
2022-11-10T15:52:29.155Z,88.38
2022-11-10T15:55:34.428Z,88.55
2022-11-10T15:58:38.702Z,88.68
2022-11-10T16:01:41.479Z,89.13
2022-11-10T16:04:44.301Z,89.85
2022-11-10T16:07:47.121Z,90.27
2022-11-10T16:10:53.257Z,90.19
2022-11-10T16:13:58.184Z,90.97
2022-11-10T16:17:02.043Z,91.07
2022-11-10T16:20:05.381Z,91.26
2022-11-10T16:23:08.278Z,91.87
2022-11-10T16:26:14.714Z,91.96
2022-11-10T16:29:20.988Z,92.25
2022-11-10T16:32:23.802Z,92.35
2022-11-10T16:35:26.993Z,92.86
2022-11-10T16:38:31.369Z,93.18
2022-11-10T16:41:34.557Z,93.25
2022-11-10T16:44:42.268Z,93.85
2022-11-10T16:47:48.207Z,93.59
2022-11-10T16:50:53.454Z,93.72
2022-11-10T16:53:56.348Z,94.03
2022-11-10T16:56:59.023Z,94.73
2022-11-10T17:00:03.480Z,94.53
2022-11-10T17:03:12.156Z,95.04
2022-11-10T17:06:16.212Z,95.05
2022-11-10T17:09:22.460Z,95.18
2022-11-10T17:12:25.215Z,95.72
2022-11-10T17:15:29.291Z,95.88
2022-11-10T17:18:33.323Z,95.66
2022-11-10T17:21:37.344Z,95.99
2022-11-10T17:24:40.100Z,96.46
2022-11-10T17:27:43.049Z,96.26
2022-11-10T17:30:47.431Z,96.64
2022-11-10T17:33:50.112Z,96.60
2022-11-10T17:36:59.883Z,96.75
2022-11-10T17:40:17.791Z,96.66
2022-11-10T17:43:21.536Z,96.98
2022-11-10T17:46:25.954Z,97.36
2022-11-10T17:49:28.817Z,97.32
2022-11-10T17:52:31.605Z,97.63
2022-11-10T17:55:34.750Z,98.70
2022-11-10T17:58:37.819Z,98.45
2022-11-10T18:01:46.051Z,98.40
2022-11-10T18:04:50.531Z,98.51
2022-11-10T18:07:53.618Z,98.77
2022-11-10T18:10:56.436Z,98.94
2022-11-10T18:13:59.113Z,98.86
2022-11-10T18:17:03.300Z,99.01
2022-11-10T18:20:06.892Z,99.30
2022-11-10T18:23:12.298Z,99.16
2022-11-10T18:26:14.995Z,99.14
2022-11-10T18:29:17.711Z,99.52
2022-11-10T18:32:23.082Z,99.25
2022-11-10T18:35:25.936Z,99.55
2022-11-10T18:38:28.848Z,99.67
2022-11-10T18:41:57.699Z,99.76
2022-11-10T18:45:00.403Z,100.00
2022-11-10T18:48:05.900Z,100.00
2022-11-10T18:51:08.727Z,99.93
2022-11-10T18:54:11.752Z,100.00
2022-11-10T18:57:16.569Z,100.00
2022-11-10T19:00:19.848Z,100.00
2022-11-10T19:03:24.180Z,100.00
2022-11-10T19:06:27.101Z,100.00
2022-11-10T19:09:29.929Z,100.00
2022-11-10T19:12:33.394Z,100.00
2022-11-10T19:15:41.050Z,100.00
2022-11-10T19:18:45.500Z,100.00
2022-11-10T19:21:48.644Z,100.00
2022-11-10T19:25:07.515Z,100.00
2022-11-10T19:28:11.652Z,100.00
2022-11-10T19:31:16.424Z,100.00
2022-11-10T19:34:21.590Z,100.00
2022-11-10T19:37:32.017Z,100.00
2022-11-10T19:40:39.303Z,100.00
2022-11-10T19:43:47.662Z,100.00
2022-11-10T19:46:50.639Z,100.00
2022-11-10T19:49:54.645Z,100.00
2022-11-10T19:52:57.654Z,100.00
2022-11-10T19:56:05.286Z,100.00
2022-11-10T19:59:08.409Z,100.00
2022-11-10T20:02:13.477Z,100.00
2022-11-10T20:05:18.476Z,100.00
2022-11-10T20:08:21.604Z,100.00
2022-11-10T20:11:25.931Z,100.00
2022-11-10T20:14:29.162Z,100.00
2022-11-10T20:17:32.036Z,100.00
2022-11-10T20:20:38.716Z,100.00
2022-11-10T20:23:42.396Z,100.00
2022-11-10T20:26:45.519Z,100.00
2022-11-10T20:29:48.625Z,100.00
2022-11-10T20:32:52.027Z,100.00
2022-11-10T20:35:56.541Z,100.00
2022-11-10T20:39:00.925Z,100.00
2022-11-10T20:42:04.030Z,100.00
2022-11-10T20:45:08.260Z,100.00
2022-11-10T20:48:11.086Z,100.00
2022-11-10T20:51:17.307Z,100.00
2022-11-10T20:54:20.066Z,100.00
2022-11-10T20:57:22.787Z,100.00
2022-11-10T21:00:25.557Z,100.00
2022-11-10T21:03:28.286Z,100.00
2022-11-10T21:06:32.472Z,100.00
2022-11-10T21:09:35.206Z,100.00
2022-11-10T21:12:53.193Z,100.00
2022-11-10T21:15:58.506Z,100.00
2022-11-10T21:19:02.423Z,100.00
2022-11-10T21:22:06.498Z,100.00
2022-11-10T21:25:09.869Z,100.00
2022-11-10T21:28:12.701Z,100.00
2022-11-10T21:31:15.816Z,100.00
2022-11-10T21:34:18.518Z,100.00
2022-11-10T21:37:23.751Z,100.00
2022-11-10T21:40:26.475Z,100.00
2022-11-10T21:43:29.515Z,100.00
2022-11-10T21:46:32.437Z,100.00
2022-11-10T21:49:35.150Z,100.00
2022-11-10T21:52:39.346Z,100.00
2022-11-10T21:55:42.165Z,100.00
2022-11-10T21:58:45.000Z,100.00
2022-11-10T22:01:47.802Z,100.00
2022-11-10T22:04:50.639Z,100.00
2022-11-10T22:07:54.707Z,100.00
2022-11-10T22:11:14.713Z,100.00
2022-11-10T22:14:34.961Z,100.00
2022-11-10T22:17:55.192Z,100.00
2022-11-10T22:20:57.928Z,100.00
2022-11-10T22:24:19.359Z,100.00
2022-11-10T22:27:22.408Z,100.00
2022-11-10T22:30:25.467Z,100.00
2022-11-10T22:33:28.584Z,100.00
2022-11-10T22:36:31.625Z,100.00
2022-11-10T22:39:53.261Z,100.00
2022-11-10T22:43:13.385Z,100.00
2022-11-10T22:46:16.330Z,100.00
2022-11-10T22:49:21.467Z,100.00
2022-11-10T22:52:24.448Z,100.00
2022-11-10T22:55:28.499Z,100.00
2022-11-10T22:58:31.190Z,100.00
2022-11-10T23:01:34.746Z,100.00
2022-11-10T23:04:37.478Z,100.00
2022-11-10T23:07:40.172Z,100.00
2022-11-10T23:10:44.365Z,100.00
2022-11-10T23:13:47.702Z,100.00
2022-11-10T23:16:50.419Z,100.00
2022-11-10T23:19:53.240Z,100.00
2022-11-10T23:22:56.327Z,100.00
2022-11-10T23:26:02.960Z,100.00
2022-11-10T23:29:05.858Z,100.00
2022-11-10T23:32:08.739Z,100.00
2022-11-10T23:35:11.484Z,100.00
2022-11-10T23:38:14.215Z,100.00
2022-11-10T23:41:21.220Z,100.00
2022-11-10T23:44:24.077Z,100.00
2022-11-10T23:47:26.925Z,100.00
2022-11-10T23:50:29.649Z,100.00
2022-11-10T23:53:32.585Z,100.00
2022-11-10T23:56:36.675Z,100.00
2022-11-10T23:59:39.520Z,100.00
